createdAt,value
2017-03-01T00:00:43.161Z,99.99
2017-03-01T00:01:56.280Z,99.99
2017-03-01T00:03:09.376Z,99.99
2017-03-01T00:04:22.468Z,99.99
2017-03-01T00:05:35.589Z,99.99
2017-03-01T00:06:48.647Z,99.99
2017-03-01T00:08:01.715Z,99.99
2017-03-01T00:09:14.810Z,99.99
2017-03-01T00:10:27.510Z,99.99
2017-03-01T00:11:40.576Z,99.99
2017-03-01T00:12:53.299Z,99.99
2017-03-01T00:14:06.385Z,99.99
2017-03-01T00:15:19.086Z,99.99
2017-03-01T00:16:31.736Z,99.99
2017-03-01T00:17:44.377Z,99.99
2017-03-01T00:18:57.399Z,99.99
2017-03-01T00:20:10.744Z,99.99
2017-03-01T00:21:23.821Z,99.99
2017-03-01T00:22:36.892Z,99.99
2017-03-01T00:23:49.961Z,99.99
2017-03-01T00:25:02.649Z,99.99
2017-03-01T00:26:15.718Z,99.99
2017-03-01T00:27:28.394Z,99.99
2017-03-01T00:28:41.493Z,99.99
2017-03-01T00:29:54.564Z,99.99
2017-03-01T00:31:07.281Z,99.99
2017-03-01T00:32:20.356Z,99.99
2017-03-01T00:33:33.419Z,99.99
2017-03-01T00:34:46.540Z,99.99
2017-03-01T00:35:59.593Z,99.99
2017-03-01T00:37:12.293Z,99.99
2017-03-01T00:38:25.337Z,99.99
2017-03-01T00:39:38.430Z,99.99
2017-03-01T00:40:51.534Z,99.99
2017-03-01T00:42:04.214Z,99.99
2017-03-01T00:43:16.936Z,99.99
2017-03-01T00:44:29.611Z,99.99
2017-03-01T00:45:42.688Z,99.99
2017-03-01T00:46:55.984Z,99.99
2017-03-01T00:48:09.002Z,99.99
2017-03-01T00:49:21.322Z,99.99
2017-03-01T00:50:33.993Z,99.99
2017-03-01T00:51:47.082Z,99.99
2017-03-01T00:52:59.762Z,99.99
2017-03-01T00:54:12.849Z,99.99
2017-03-01T00:55:25.977Z,99.99
2017-03-01T00:56:39.080Z,99.99
2017-03-01T00:57:52.390Z,99.99
2017-03-01T00:59:05.079Z,99.99
2017-03-01T01:00:18.162Z,99.99
2017-03-01T01:01:30.919Z,99.99
2017-03-01T01:02:43.257Z,99.99
2017-03-01T01:03:56.321Z,99.99
2017-03-01T01:05:09.372Z,99.99
2017-03-01T01:06:22.433Z,99.99
2017-03-01T01:07:35.508Z,99.99
2017-03-01T01:08:48.583Z,99.99
2017-03-01T01:10:01.695Z,99.99
2017-03-01T01:11:14.755Z,99.99
2017-03-01T01:12:27.419Z,99.99
2017-03-01T01:13:40.491Z,99.99
2017-03-01T01:14:53.578Z,99.99
2017-03-01T01:16:06.258Z,99.99
2017-03-01T01:17:19.321Z,99.99
2017-03-01T01:18:31.621Z,99.99
2017-03-01T01:19:44.295Z,99.99
2017-03-01T01:20:57.409Z,99.99
2017-03-01T01:22:10.502Z,99.99
2017-03-01T01:23:23.201Z,99.99
2017-03-01T01:24:36.278Z,99.99
2017-03-01T01:25:49.352Z,99.99
2017-03-01T01:27:02.392Z,99.99
2017-03-01T01:28:15.493Z,99.99
2017-03-01T01:29:28.585Z,99.99
2017-03-01T01:30:41.896Z,99.99
2017-03-01T01:31:54.926Z,99.99
2017-03-01T01:33:07.653Z,99.99
2017-03-01T01:34:20.796Z,99.99
2017-03-01T01:35:33.462Z,99.99
2017-03-01T01:36:46.176Z,99.99
2017-03-01T01:37:59.258Z,99.99
2017-03-01T01:39:12.332Z,99.99
2017-03-01T01:40:25.439Z,99.99
2017-03-01T01:41:37.997Z,99.99
2017-03-01T01:42:50.659Z,99.99
2017-03-01T01:44:03.693Z,99.99
2017-03-01T01:45:16.783Z,99.99
2017-03-01T01:46:29.847Z,99.99
2017-03-01T01:47:42.950Z,99.99
2017-03-01T01:48:55.648Z,99.99
2017-03-01T01:50:08.734Z,99.99
2017-03-01T01:51:21.805Z,99.99
2017-03-01T01:52:34.859Z,99.99
2017-03-01T01:53:47.930Z,99.99
2017-03-01T01:55:01.004Z,99.99
2017-03-01T01:56:14.072Z,99.99
2017-03-01T01:57:27.116Z,99.99
2017-03-01T01:58:40.195Z,99.99
2017-03-01T01:59:53.327Z,99.99
2017-03-01T02:01:06.404Z,99.99
2017-03-01T02:02:19.076Z,99.99
2017-03-01T02:03:32.376Z,99.99
2017-03-01T02:04:45.444Z,99.99
2017-03-01T02:05:58.135Z,99.99
2017-03-01T02:07:10.827Z,99.99
2017-03-01T02:08:23.906Z,99.99
2017-03-01T02:09:37.002Z,99.99
2017-03-01T02:10:49.751Z,99.99
2017-03-01T02:12:02.845Z,99.99
2017-03-01T02:13:15.935Z,99.99
2017-03-01T02:14:29.022Z,99.99
2017-03-01T02:15:41.701Z,99.99
2017-03-01T02:16:54.751Z,99.99
2017-03-01T02:18:07.824Z,99.99
2017-03-01T02:19:20.896Z,99.99
2017-03-01T02:20:33.603Z,99.99
2017-03-01T02:21:46.685Z,99.99
2017-03-01T02:22:59.802Z,99.99
2017-03-01T02:24:12.519Z,99.99
2017-03-01T02:25:25.477Z,99.99
2017-03-01T02:26:38.195Z,99.99
2017-03-01T02:27:51.242Z,99.99
2017-03-01T02:29:04.315Z,99.99
2017-03-01T02:30:16.620Z,99.99
2017-03-01T02:31:29.320Z,99.99
2017-03-01T02:32:41.998Z,99.99
2017-03-01T02:33:55.069Z,99.99
2017-03-01T02:35:07.791Z,99.99
2017-03-01T02:36:20.883Z,99.99
2017-03-01T02:37:33.569Z,99.99
2017-03-01T02:38:46.631Z,99.99
2017-03-01T02:39:59.694Z,99.99
2017-03-01T02:41:12.795Z,99.99
2017-03-01T02:42:25.836Z,99.99
2017-03-01T02:43:38.917Z,99.99
2017-03-01T02:44:51.960Z,99.99
2017-03-01T02:46:04.624Z,99.99
2017-03-01T02:47:17.676Z,99.99
2017-03-01T02:48:30.746Z,99.99
2017-03-01T02:49:43.794Z,99.99
2017-03-01T02:50:56.863Z,99.99
2017-03-01T02:52:09.954Z,99.99
2017-03-01T02:53:23.008Z,99.99
2017-03-01T02:54:36.088Z,99.99
2017-03-01T02:55:49.162Z,99.99
2017-03-01T02:57:02.215Z,99.99
2017-03-01T02:58:15.528Z,99.99
2017-03-01T02:59:28.578Z,99.99
2017-03-01T03:00:40.879Z,99.99
2017-03-01T03:01:53.974Z,99.99
2017-03-01T03:03:07.066Z,99.99
2017-03-01T03:04:20.132Z,99.99
2017-03-01T03:05:33.188Z,99.99
2017-03-01T03:06:45.882Z,99.99
2017-03-01T03:07:58.949Z,99.99
2017-03-01T03:09:12.012Z,99.99
2017-03-01T03:10:24.690Z,99.99
2017-03-01T03:11:37.338Z,99.99
2017-03-01T03:12:50.412Z,99.99
2017-03-01T03:14:03.463Z,99.99
2017-03-01T03:15:15.771Z,99.99
2017-03-01T03:16:28.863Z,99.99
2017-03-01T03:17:41.945Z,99.99
2017-03-01T03:18:54.994Z,99.99
2017-03-01T03:20:07.959Z,99.99
2017-03-01T03:21:21.058Z,99.99
2017-03-01T03:22:33.747Z,99.99
2017-03-01T03:23:46.827Z,99.99
2017-03-01T03:24:59.546Z,99.99
2017-03-01T03:26:12.640Z,99.99
2017-03-01T03:27:25.330Z,99.99
2017-03-01T03:28:38.382Z,99.99
2017-03-01T03:29:51.050Z,99.99
2017-03-01T03:31:04.101Z,99.99
2017-03-01T03:32:16.818Z,99.99
2017-03-01T03:33:29.467Z,99.99
2017-03-01T03:34:41.784Z,99.99
2017-03-01T03:35:54.451Z,99.99
2017-03-01T03:37:07.528Z,99.99
2017-03-01T03:38:20.576Z,99.99
2017-03-01T03:39:33.249Z,99.99
2017-03-01T03:40:46.313Z,99.99
2017-03-01T03:41:59.637Z,99.99
2017-03-01T03:43:12.355Z,99.99
2017-03-01T03:44:25.426Z,99.99
2017-03-01T03:45:38.122Z,99.99
2017-03-01T03:46:50.793Z,99.99
2017-03-01T03:48:03.892Z,99.99
2017-03-01T03:49:16.614Z,99.99
2017-03-01T03:50:29.698Z,99.99
2017-03-01T03:51:42.772Z,99.99
2017-03-01T03:52:55.839Z,99.99
2017-03-01T03:54:08.913Z,99.99
2017-03-01T03:55:21.989Z,99.99
2017-03-01T03:56:34.712Z,99.99
2017-03-01T03:57:47.803Z,99.99
2017-03-01T03:59:00.880Z,99.99
2017-03-01T04:00:13.608Z,99.99
2017-03-01T04:01:26.689Z,99.99
2017-03-01T04:02:39.344Z,99.99
2017-03-01T04:03:52.392Z,99.99
2017-03-01T04:05:05.074Z,99.99
2017-03-01T04:06:18.152Z,99.99
2017-03-01T04:07:31.203Z,99.99
2017-03-01T04:08:44.288Z,99.99
2017-03-01T04:09:57.357Z,99.99
2017-03-01T04:11:10.416Z,99.99
2017-03-01T04:12:23.527Z,99.99
2017-03-01T04:13:36.586Z,99.99
2017-03-01T04:14:49.652Z,99.99
2017-03-01T04:16:02.721Z,99.99
2017-03-01T04:17:15.791Z,99.99
2017-03-01T04:18:28.438Z,99.99
2017-03-01T04:19:41.513Z,99.99
2017-03-01T04:20:54.178Z,99.99
2017-03-01T04:22:06.881Z,99.99
2017-03-01T04:23:19.999Z,99.99
2017-03-01T04:24:33.091Z,99.99
2017-03-01T04:25:45.846Z,99.99
2017-03-01T04:26:58.900Z,99.99
2017-03-01T04:28:11.984Z,99.99
2017-03-01T04:29:25.049Z,99.99
2017-03-01T04:30:38.122Z,99.99
2017-03-01T04:31:51.434Z,99.99
2017-03-01T04:33:04.503Z,99.99
2017-03-01T04:34:17.541Z,99.99
2017-03-01T04:35:30.578Z,99.99
2017-03-01T04:36:43.249Z,99.99
2017-03-01T04:37:56.323Z,99.99
2017-03-01T04:39:09.391Z,99.99
2017-03-01T04:40:22.486Z,99.99
2017-03-01T04:41:35.215Z,99.99
2017-03-01T04:42:47.924Z,99.99
2017-03-01T04:44:01.016Z,99.99
2017-03-01T04:45:13.689Z,99.99
2017-03-01T04:46:26.759Z,99.99
2017-03-01T04:47:40.062Z,99.99
2017-03-01T04:48:52.728Z,99.99
2017-03-01T04:50:05.449Z,99.99
2017-03-01T04:51:18.154Z,99.99
2017-03-01T04:52:31.240Z,99.99
2017-03-01T04:53:44.290Z,99.99
2017-03-01T04:54:57.382Z,99.99
2017-03-01T04:56:10.452Z,99.99
2017-03-01T04:57:23.531Z,99.99
2017-03-01T04:58:36.574Z,99.99
2017-03-01T04:59:49.265Z,99.99
2017-03-01T05:01:02.316Z,99.99
2017-03-01T05:02:15.411Z,99.99
2017-03-01T05:03:28.460Z,99.99
2017-03-01T05:04:41.538Z,99.99
2017-03-01T05:05:54.591Z,99.99
2017-03-01T05:07:07.270Z,99.99
2017-03-01T05:08:20.338Z,99.99
2017-03-01T05:09:33.429Z,99.99
2017-03-01T05:10:46.478Z,99.99
2017-03-01T05:11:59.506Z,99.99
2017-03-01T05:13:12.199Z,99.99
2017-03-01T05:14:24.524Z,99.99
2017-03-01T05:15:37.245Z,99.99
2017-03-01T05:16:50.315Z,99.99
2017-03-01T05:18:03.408Z,99.99
2017-03-01T05:19:16.484Z,99.99
2017-03-01T05:20:29.167Z,99.99
2017-03-01T05:21:42.267Z,99.99
2017-03-01T05:22:55.315Z,99.99
2017-03-01T05:24:08.404Z,99.99
2017-03-01T05:25:21.482Z,99.99
2017-03-01T05:26:34.184Z,99.99
2017-03-01T05:27:47.255Z,99.99
2017-03-01T05:29:00.304Z,99.99
2017-03-01T05:30:13.371Z,99.99
2017-03-01T05:31:26.316Z,99.99
2017-03-01T05:32:39.383Z,99.99
2017-03-01T05:33:52.461Z,99.99
2017-03-01T05:35:05.154Z,99.99
2017-03-01T05:36:18.250Z,99.99
2017-03-01T05:37:31.337Z,99.99
2017-03-01T05:38:44.013Z,99.99
2017-03-01T05:39:56.711Z,99.99
2017-03-01T05:41:09.803Z,99.99
2017-03-01T05:42:23.101Z,99.99
2017-03-01T05:43:35.791Z,99.99
2017-03-01T05:44:48.475Z,99.99
2017-03-01T05:46:01.515Z,99.99
2017-03-01T05:47:14.211Z,99.99
2017-03-01T05:48:26.860Z,99.99
2017-03-01T05:49:39.921Z,99.99
2017-03-01T05:50:52.974Z,99.99
2017-03-01T05:52:05.667Z,99.99
2017-03-01T05:53:18.317Z,99.99
2017-03-01T05:54:31.388Z,99.99
2017-03-01T05:55:44.438Z,99.99
2017-03-01T05:56:57.497Z,99.99
2017-03-01T05:58:10.552Z,99.99
2017-03-01T05:59:23.859Z,99.99
2017-03-01T06:00:36.906Z,99.99
2017-03-01T06:01:49.594Z,99.99
2017-03-01T06:03:02.664Z,99.99
2017-03-01T06:04:15.704Z,99.99
2017-03-01T06:05:28.414Z,99.99
2017-03-01T06:06:41.446Z,99.99
2017-03-01T06:07:54.510Z,99.99
2017-03-01T06:09:07.639Z,99.99
2017-03-01T06:10:20.336Z,99.99
2017-03-01T06:11:33.036Z,99.99
2017-03-01T06:12:46.126Z,99.99
2017-03-01T06:13:59.193Z,99.99
2017-03-01T06:15:12.259Z,99.99
2017-03-01T06:16:24.960Z,99.99
2017-03-01T06:17:37.676Z,99.99
2017-03-01T06:18:50.408Z,99.99
2017-03-01T06:20:03.489Z,99.99
2017-03-01T06:21:16.168Z,99.99
2017-03-01T06:22:29.194Z,99.99
2017-03-01T06:23:41.860Z,99.99
2017-03-01T06:24:54.932Z,99.99
2017-03-01T06:26:07.627Z,99.99
2017-03-01T06:27:20.691Z,99.99
2017-03-01T06:28:33.765Z,99.99
2017-03-01T06:29:46.844Z,99.99
2017-03-01T06:30:59.892Z,99.99
2017-03-01T06:32:12.961Z,99.99
2017-03-01T06:33:26.020Z,99.99
2017-03-01T06:34:38.695Z,99.99
2017-03-01T06:35:51.800Z,99.99
2017-03-01T06:37:04.870Z,99.99
2017-03-01T06:38:17.928Z,99.99
2017-03-01T06:39:30.987Z,99.99
2017-03-01T06:40:44.118Z,99.99
2017-03-01T06:41:56.816Z,99.99
2017-03-01T06:43:09.879Z,99.99
2017-03-01T06:44:22.545Z,99.99
2017-03-01T06:45:35.679Z,99.99
2017-03-01T06:46:48.737Z,99.99
2017-03-01T06:48:01.457Z,99.99
2017-03-01T06:49:14.199Z,99.99
2017-03-01T06:50:26.863Z,99.99
2017-03-01T06:51:39.933Z,99.99
2017-03-01T06:52:52.612Z,99.99
2017-03-01T06:54:05.675Z,99.99
2017-03-01T06:55:18.378Z,99.99
2017-03-01T06:56:31.446Z,99.99
2017-03-01T06:57:44.528Z,99.99
2017-03-01T06:58:57.861Z,99.99
2017-03-01T07:00:10.984Z,99.99
2017-03-01T07:01:23.642Z,99.99
2017-03-01T07:02:36.360Z,99.99
2017-03-01T07:03:49.449Z,99.99
2017-03-01T07:05:02.548Z,99.99
2017-03-01T07:06:15.271Z,99.99
2017-03-01T07:07:28.366Z,99.99
2017-03-01T07:08:41.479Z,99.99
2017-03-01T07:09:54.538Z,99.99
2017-03-01T07:11:07.651Z,99.99
2017-03-01T07:12:20.723Z,99.99
2017-03-01T07:13:33.836Z,99.99
2017-03-01T07:14:46.888Z,99.99
2017-03-01T07:15:59.534Z,99.99
2017-03-01T07:17:12.585Z,99.99
2017-03-01T07:18:24.905Z,99.99
2017-03-01T07:19:38.002Z,99.99
2017-03-01T07:20:50.718Z,99.99
2017-03-01T07:22:03.797Z,99.99
2017-03-01T07:23:16.938Z,99.99
2017-03-01T07:24:29.605Z,99.99
2017-03-01T07:25:42.876Z,99.99
2017-03-01T07:26:55.928Z,99.99
2017-03-01T07:28:09.018Z,99.99
2017-03-01T07:29:22.092Z,99.99
2017-03-01T07:30:34.765Z,99.99
2017-03-01T07:31:47.855Z,99.99
2017-03-01T07:33:00.603Z,99.99
2017-03-01T07:34:13.676Z,99.99
2017-03-01T07:35:26.367Z,99.99
2017-03-01T07:36:39.050Z,99.99
2017-03-01T07:37:52.163Z,99.99
2017-03-01T07:39:04.873Z,99.99
2017-03-01T07:40:17.569Z,99.99
2017-03-01T07:41:30.244Z,99.99
2017-03-01T07:42:43.295Z,99.99
2017-03-01T07:43:55.983Z,99.99
2017-03-01T07:45:08.661Z,99.99
2017-03-01T07:46:21.711Z,99.99
2017-03-01T07:47:34.820Z,99.99
2017-03-01T07:48:47.866Z,99.99
2017-03-01T07:50:00.919Z,99.99
2017-03-01T07:51:13.618Z,99.99
2017-03-01T07:52:26.689Z,99.99
2017-03-01T07:53:39.736Z,99.99
2017-03-01T07:54:52.377Z,99.99
2017-03-01T07:56:05.464Z,99.99
2017-03-01T07:57:17.774Z,99.99
2017-03-01T07:58:31.071Z,99.99
2017-03-01T07:59:44.157Z,99.99
2017-03-01T08:00:56.860Z,99.99
2017-03-01T08:02:09.907Z,99.99
2017-03-01T08:03:23.004Z,99.99
2017-03-01T08:04:36.070Z,99.99
2017-03-01T08:05:49.141Z,99.99
2017-03-01T08:07:02.215Z,99.99
2017-03-01T08:08:15.257Z,99.99
2017-03-01T08:09:28.332Z,99.99
2017-03-01T08:10:41.424Z,99.99
2017-03-01T08:11:54.513Z,99.99
2017-03-01T08:13:07.687Z,99.99
2017-03-01T08:14:20.807Z,99.99
2017-03-01T08:15:33.111Z,99.99
2017-03-01T08:16:46.183Z,99.99
2017-03-01T08:17:58.867Z,99.99
2017-03-01T08:19:11.948Z,99.99
2017-03-01T08:20:24.710Z,99.99
2017-03-01T08:21:37.389Z,99.99
2017-03-01T08:22:50.476Z,99.99
2017-03-01T08:24:03.171Z,99.99
2017-03-01T08:25:16.243Z,99.99
2017-03-01T08:26:29.347Z,99.99
2017-03-01T08:27:42.033Z,99.99
2017-03-01T08:28:55.105Z,99.99
2017-03-01T08:30:08.208Z,99.99
2017-03-01T08:31:21.238Z,99.99
2017-03-01T08:32:33.928Z,99.99
2017-03-01T08:33:46.992Z,99.99
2017-03-01T08:35:00.066Z,99.99
2017-03-01T08:36:13.179Z,99.99
2017-03-01T08:37:26.218Z,99.99
2017-03-01T08:38:38.910Z,99.99
2017-03-01T08:39:51.593Z,99.99
2017-03-01T08:41:04.663Z,99.99
2017-03-01T08:42:17.698Z,99.99
2017-03-01T08:43:30.762Z,99.99
2017-03-01T08:44:43.827Z,99.99
2017-03-01T08:45:56.905Z,99.99
2017-03-01T08:47:09.635Z,99.99
2017-03-01T08:48:22.325Z,99.99
2017-03-01T08:49:35.040Z,99.99
2017-03-01T08:50:48.164Z,99.99
2017-03-01T08:52:01.235Z,99.99
2017-03-01T08:53:13.911Z,99.99
2017-03-01T08:54:26.995Z,99.99
2017-03-01T08:55:40.065Z,99.99
2017-03-01T08:56:53.142Z,99.91
2017-03-01T08:58:05.839Z,99.99
2017-03-01T08:59:18.888Z,99.72
2017-03-01T09:00:31.959Z,99.72
2017-03-01T09:01:44.644Z,99.63
2017-03-01T09:02:57.347Z,99.82
2017-03-01T09:04:10.394Z,99.91
2017-03-01T09:05:23.063Z,99.99
2017-03-01T09:06:35.769Z,99.44
2017-03-01T09:07:48.056Z,99.82
2017-03-01T09:09:01.162Z,99.63
2017-03-01T09:10:14.230Z,99.34
2017-03-01T09:11:27.319Z,98.87
2017-03-01T09:12:40.393Z,99.01
2017-03-01T09:13:53.453Z,98.63
2017-03-01T09:15:06.509Z,98.07
2017-03-01T09:16:19.206Z,98.35
2017-03-01T09:17:31.894Z,98.25
2017-03-01T09:18:44.978Z,98.35
2017-03-01T09:19:57.686Z,97.5
2017-03-01T09:21:10.781Z,97.88
2017-03-01T09:22:23.831Z,97.21
2017-03-01T09:23:36.509Z,96.64
2017-03-01T09:24:49.204Z,97.02
2017-03-01T09:26:01.937Z,96.22
2017-03-01T09:27:15.033Z,96.22
2017-03-01T09:28:27.714Z,96.03
2017-03-01T09:29:40.811Z,95.65
2017-03-01T09:30:53.905Z,95.55
2017-03-01T09:32:06.574Z,95.55
2017-03-01T09:33:19.271Z,94.7
2017-03-01T09:34:32.336Z,94.51
2017-03-01T09:35:45.413Z,94.98
2017-03-01T09:36:58.511Z,94.03
2017-03-01T09:38:11.556Z,94.42
2017-03-01T09:39:24.227Z,94.42
2017-03-01T09:40:36.153Z,93.75
2017-03-01T09:41:49.216Z,94.03
2017-03-01T09:43:01.514Z,93.65
2017-03-01T09:44:14.258Z,93.51
2017-03-01T09:45:27.349Z,93.89
2017-03-01T09:46:40.500Z,93.89
2017-03-01T09:47:53.567Z,93.8
2017-03-01T09:49:06.643Z,93.23
2017-03-01T09:50:19.008Z,93.04
2017-03-01T09:51:32.100Z,92.66
2017-03-01T09:52:45.171Z,92.71
2017-03-01T09:53:58.245Z,92.75
2017-03-01T09:55:10.927Z,92.32
2017-03-01T09:56:24.012Z,92.8
2017-03-01T09:57:37.091Z,92.71
2017-03-01T09:58:50.112Z,92.8
2017-03-01T10:00:02.415Z,92.04
2017-03-01T10:01:15.131Z,92.04
2017-03-01T10:02:28.213Z,92.04
2017-03-01T10:03:41.283Z,91.85
2017-03-01T10:04:54.341Z,92.13
2017-03-01T10:06:07.017Z,92.04
2017-03-01T10:07:19.679Z,92.13
2017-03-01T10:08:32.375Z,92.71
2017-03-01T10:09:45.466Z,91.66
2017-03-01T10:10:58.545Z,91.75
2017-03-01T10:12:11.609Z,91.38
2017-03-01T10:13:24.737Z,91.38
2017-03-01T10:14:37.827Z,91.09
2017-03-01T10:15:50.955Z,90.23
2017-03-01T10:17:04.080Z,90.23
2017-03-01T10:18:17.142Z,90.52
2017-03-01T10:19:30.232Z,90.33
2017-03-01T10:20:43.293Z,90.9
2017-03-01T10:21:55.959Z,90.61
2017-03-01T10:23:09.007Z,90.9
2017-03-01T10:24:22.102Z,90.33
2017-03-01T10:25:35.189Z,90.33
2017-03-01T10:26:48.284Z,90.33
2017-03-01T10:28:01.387Z,90.09
2017-03-01T10:29:14.055Z,89.76
2017-03-01T10:30:27.098Z,89
2017-03-01T10:31:40.171Z,88.81
2017-03-01T10:32:53.245Z,88.47
2017-03-01T10:34:05.913Z,88.81
2017-03-01T10:35:18.591Z,88.95
2017-03-01T10:36:31.701Z,87.9
2017-03-01T10:37:44.001Z,87.52
2017-03-01T10:38:56.322Z,87.86
2017-03-01T10:40:09.371Z,88.76
2017-03-01T10:41:22.106Z,88.95
2017-03-01T10:42:34.826Z,88.95
2017-03-01T10:43:47.934Z,88.85
2017-03-01T10:45:00.654Z,88.76
2017-03-01T10:46:13.726Z,88
2017-03-01T10:47:26.767Z,87.81
2017-03-01T10:48:39.069Z,88.38
2017-03-01T10:49:51.777Z,87.71
2017-03-01T10:51:04.477Z,87.62
2017-03-01T10:52:17.507Z,87.66
2017-03-01T10:53:29.897Z,87.57
2017-03-01T10:54:42.590Z,87.19
2017-03-01T10:55:55.693Z,86.52
2017-03-01T10:57:08.761Z,86.8
2017-03-01T10:58:21.810Z,86.8
2017-03-01T10:59:34.877Z,86.71
2017-03-01T11:00:47.565Z,87.19
2017-03-01T11:02:00.973Z,86.61
2017-03-01T11:03:14.031Z,86.24
2017-03-01T11:04:27.085Z,86.43
2017-03-01T11:05:40.151Z,85.38
2017-03-01T11:06:53.244Z,85.28
2017-03-01T11:08:06.325Z,85.71
2017-03-01T11:09:18.997Z,85.38
2017-03-01T11:10:31.663Z,85.47
2017-03-01T11:11:44.309Z,86.05
2017-03-01T11:12:57.386Z,85.99
2017-03-01T11:14:10.068Z,85.52
2017-03-01T11:15:23.200Z,85.52
2017-03-01T11:16:35.943Z,84.56
2017-03-01T11:17:48.642Z,84.85
2017-03-01T11:19:01.339Z,85.14
2017-03-01T11:20:14.288Z,84.61
2017-03-01T11:21:27.381Z,84.09
2017-03-01T11:22:40.056Z,83.94
2017-03-01T11:23:52.786Z,83.9
2017-03-01T11:25:05.866Z,84.33
2017-03-01T11:26:18.581Z,84.23
2017-03-01T11:27:31.660Z,85.18
2017-03-01T11:28:44.727Z,85.28
2017-03-01T11:29:57.827Z,85.33
2017-03-01T11:31:10.514Z,85.52
2017-03-01T11:32:23.198Z,85.33
2017-03-01T11:33:36.278Z,85.42
2017-03-01T11:34:49.358Z,85.52
2017-03-01T11:36:02.034Z,85.71
2017-03-01T11:37:15.106Z,86.28
2017-03-01T11:38:28.169Z,86.28
2017-03-01T11:39:41.245Z,86.57
2017-03-01T11:40:54.312Z,87.13
2017-03-01T11:42:07.231Z,87.47
2017-03-01T11:43:20.280Z,88.33
2017-03-01T11:44:32.957Z,88.61
2017-03-01T11:45:45.670Z,89.28
2017-03-01T11:46:58.765Z,89.94
2017-03-01T11:48:11.815Z,89.75
2017-03-01T11:49:24.527Z,90.23
2017-03-01T11:50:37.645Z,91.37
2017-03-01T11:51:50.332Z,92.51
2017-03-01T11:53:03.401Z,93.55
2017-03-01T11:54:16.496Z,94.22
2017-03-01T11:55:29.581Z,95.08
2017-03-01T11:56:42.686Z,96.41
2017-03-01T11:57:55.752Z,96.79
2017-03-01T11:59:08.826Z,96.55
2017-03-01T12:00:21.941Z,97.31
2017-03-01T12:01:35.065Z,97.78
2017-03-01T12:02:48.191Z,98.45
2017-03-01T12:04:01.257Z,99.21
2017-03-01T12:05:14.356Z,99.69
2017-03-01T12:06:27.425Z,99.69
2017-03-01T12:07:40.540Z,99.99
2017-03-01T12:08:53.650Z,99.99
2017-03-01T12:10:06.716Z,99.99
2017-03-01T12:11:19.799Z,99.99
2017-03-01T12:12:32.498Z,99.99
2017-03-01T12:13:45.178Z,99.99
2017-03-01T12:14:58.248Z,99.99
2017-03-01T12:16:11.295Z,99.99
2017-03-01T12:17:24.363Z,99.99
2017-03-01T12:18:37.035Z,99.99
2017-03-01T12:19:50.106Z,99.99
2017-03-01T12:21:03.156Z,99.73
2017-03-01T12:22:16.242Z,99.44
2017-03-01T12:23:28.882Z,99.92
2017-03-01T12:24:41.166Z,99.99
2017-03-01T12:25:54.235Z,99.99
2017-03-01T12:27:07.324Z,99.99
2017-03-01T12:28:19.998Z,99.99
2017-03-01T12:29:32.673Z,99.64
2017-03-01T12:30:45.736Z,99.44
2017-03-01T12:31:58.790Z,98.97
2017-03-01T12:33:11.866Z,99.44
2017-03-01T12:34:24.957Z,99.92
2017-03-01T12:35:38.040Z,99.99
2017-03-01T12:36:51.165Z,99.83
2017-03-01T12:38:04.260Z,99.99
2017-03-01T12:39:16.986Z,99.73
2017-03-01T12:40:30.050Z,99.26
2017-03-01T12:41:43.099Z,98.79
2017-03-01T12:42:56.170Z,98.12
2017-03-01T12:44:09.219Z,98.59
2017-03-01T12:45:21.893Z,99.26
2017-03-01T12:46:34.954Z,99.64
2017-03-01T12:47:48.061Z,99.83
2017-03-01T12:49:00.749Z,99.99
2017-03-01T12:50:13.427Z,99.99
2017-03-01T12:51:25.723Z,99.99
2017-03-01T12:52:38.795Z,99.99
2017-03-01T12:53:51.494Z,99.99
2017-03-01T12:55:04.579Z,99.99
2017-03-01T12:56:17.259Z,99.99
2017-03-01T12:57:30.352Z,99.99
2017-03-01T12:58:43.447Z,99.99
2017-03-01T12:59:56.491Z,99.99
2017-03-01T13:01:09.190Z,99.99
2017-03-01T13:02:21.855Z,99.99
2017-03-01T13:03:34.934Z,99.99
2017-03-01T13:04:47.603Z,99.99
2017-03-01T13:06:00.670Z,99.99
2017-03-01T13:07:13.748Z,99.99
2017-03-01T13:08:26.029Z,99.99
2017-03-01T13:09:38.727Z,99.99
2017-03-01T13:10:51.385Z,99.99
2017-03-01T13:12:04.074Z,99.99
2017-03-01T13:13:16.396Z,99.99
2017-03-01T13:14:28.263Z,99.99
2017-03-01T13:15:41.358Z,99.99
2017-03-01T13:16:54.452Z,99.99
2017-03-01T13:18:06.785Z,99.99
2017-03-01T13:19:19.879Z,99.99
2017-03-01T13:20:32.972Z,99.99
2017-03-01T13:21:45.698Z,99.99
2017-03-01T13:22:58.820Z,99.99
2017-03-01T13:24:11.526Z,99.99
2017-03-01T13:25:23.830Z,99.99
2017-03-01T13:26:36.529Z,99.99
2017-03-01T13:27:49.596Z,99.99
2017-03-01T13:29:02.246Z,99.99
2017-03-01T13:30:14.916Z,99.99
2017-03-01T13:31:26.488Z,99.99
2017-03-01T13:32:39.155Z,99.99
2017-03-01T13:33:52.218Z,99.99
2017-03-01T13:35:04.918Z,99.99
2017-03-01T13:36:17.593Z,99.99
2017-03-01T13:37:30.656Z,99.99
2017-03-01T13:38:43.366Z,99.99
2017-03-01T13:39:56.458Z,99.99
2017-03-01T13:41:08.735Z,99.99
2017-03-01T13:42:21.417Z,99.99
2017-03-01T13:43:34.121Z,99.99
2017-03-01T13:44:47.208Z,99.99
2017-03-01T13:45:59.877Z,99.99
2017-03-01T13:47:11.780Z,99.99
2017-03-01T13:48:24.452Z,99.99
2017-03-01T13:49:37.525Z,99.99
2017-03-01T13:50:50.248Z,99.99
2017-03-01T13:52:03.332Z,99.99
2017-03-01T13:53:16.396Z,99.99
2017-03-01T13:54:29.485Z,99.99
2017-03-01T13:55:42.577Z,99.99
2017-03-01T13:56:55.281Z,99.99
2017-03-01T13:58:08.368Z,99.99
2017-03-01T13:59:21.043Z,99.99
2017-03-01T14:00:34.165Z,99.99
2017-03-01T14:01:47.260Z,99.99
2017-03-01T14:02:59.977Z,99.99
2017-03-01T14:04:12.314Z,99.99
2017-03-01T14:05:24.969Z,99.99
2017-03-01T14:06:38.040Z,99.99
2017-03-01T14:07:51.111Z,99.99
2017-03-01T14:09:03.800Z,99.99
2017-03-01T14:10:16.077Z,99.99
2017-03-01T14:11:28.793Z,99.99
2017-03-01T14:12:41.123Z,99.99
2017-03-01T14:13:53.820Z,99.99
2017-03-01T14:15:06.508Z,99.99
2017-03-01T14:16:19.563Z,99.99
2017-03-01T14:17:32.282Z,99.99
2017-03-01T14:18:45.356Z,99.99
2017-03-01T14:19:57.688Z,99.99
2017-03-01T14:21:10.363Z,99.99
2017-03-01T14:22:23.067Z,99.99
2017-03-01T14:23:35.754Z,99.99
2017-03-01T14:24:48.454Z,99.99
2017-03-01T14:26:01.543Z,99.99
2017-03-01T14:27:14.203Z,99.99
2017-03-01T14:28:27.295Z,99.99
2017-03-01T14:29:39.982Z,99.99
2017-03-01T14:30:52.312Z,99.99
2017-03-01T14:32:05.030Z,99.99
2017-03-01T14:33:17.727Z,99.99
2017-03-01T14:34:30.375Z,99.99
2017-03-01T14:35:43.469Z,99.99
2017-03-01T14:36:55.789Z,99.99
2017-03-01T14:38:08.469Z,99.99
2017-03-01T14:39:21.183Z,99.99
2017-03-01T14:40:33.897Z,99.99
2017-03-01T14:41:46.923Z,99.99
2017-03-01T14:43:00.043Z,99.99
2017-03-01T14:44:13.091Z,99.99
2017-03-01T14:45:25.392Z,99.99
2017-03-01T14:46:38.459Z,99.99
2017-03-01T14:47:51.145Z,99.99
2017-03-01T14:49:04.191Z,99.99
2017-03-01T14:50:17.311Z,99.99
2017-03-01T14:51:29.964Z,99.99
2017-03-01T14:52:43.032Z,99.99
2017-03-01T14:53:56.087Z,99.99
2017-03-01T14:55:08.407Z,99.99
2017-03-01T14:56:21.095Z,99.99
2017-03-01T14:57:34.219Z,99.99
2017-03-01T14:58:47.294Z,99.99
2017-03-01T15:00:00.008Z,99.99
2017-03-01T15:01:12.288Z,99.99
2017-03-01T15:02:25.334Z,99.99
2017-03-01T15:03:38.021Z,99.99
2017-03-01T15:04:50.723Z,99.99
2017-03-01T15:06:03.845Z,99.99
2017-03-01T15:07:16.566Z,99.99
2017-03-01T15:08:29.283Z,99.99
2017-03-01T15:09:42.337Z,99.99
2017-03-01T15:10:55.422Z,99.99
2017-03-01T15:12:08.563Z,99.99
2017-03-01T15:13:21.613Z,99.99
2017-03-01T15:14:34.683Z,99.99
2017-03-01T15:15:47.363Z,99.99
2017-03-01T15:17:00.460Z,99.99
2017-03-01T15:18:13.180Z,99.99
2017-03-01T15:19:26.232Z,99.99
2017-03-01T15:20:38.950Z,99.99
2017-03-01T15:21:51.640Z,99.99
2017-03-01T15:23:04.691Z,99.99
2017-03-01T15:24:17.380Z,99.99
2017-03-01T15:25:30.051Z,99.99
2017-03-01T15:26:42.376Z,99.99
2017-03-01T15:27:55.073Z,99.99
2017-03-01T15:29:08.164Z,99.99
2017-03-01T15:30:21.288Z,99.99
2017-03-01T15:31:34.364Z,99.99
2017-03-01T15:32:46.719Z,99.99
2017-03-01T15:33:59.465Z,99.99
2017-03-01T15:35:12.536Z,99.99
2017-03-01T15:36:25.223Z,99.99
2017-03-01T15:37:37.956Z,99.99
2017-03-01T15:38:51.009Z,99.99
2017-03-01T15:40:04.072Z,99.99